Terminal Aerodrome Forecast
Issued by NWS

Home | Current Version | Previous Version | Text Only | Print | Product List | Glossary On
Versions: 1 2 3 4 5 6 7 8 9 10 11 12 13 14
000
FTUS42 KMLB 291729
TAFSUA
TAF
KSUA 291729Z 2918/3018 10010KT P6SM SCT040
     FM300000 13006KT P6SM FEW060 SCT250
     FM301400 12008KT P6SM SCT025=

USA.gov is the U.S. government's official web portal to all federal, state and local government web resources and services.